Terminal Aerodrome Forecast
Issued by NWS

Home | Current Version | Previous Version | Text Only | Print | Product List | Glossary On
Versions: 1 2 3 4 5 6 7 8 9 10 11 12 13 14 15 16 17 18 19 20
000
FTUS43 KBIS 290800 AAA
TAFJMS
TAF AMD
KJMS 290828Z 2908/3006 33019G27KT P6SM OVC015
     FM291600 33015G21KT P6SM BKN015 OVC025
      TEMPO 2918/2921 SCT018
     FM292100 34009KT P6SM SCT025
     FM300100 VRB04KT P6SM SCT110 BKN140
     FM300400 12003KT P6SM BKN100 OVC140=

USA.gov is the U.S. government's official web portal to all federal, state and local government web resources and services.